Aviation Digital Data Service (ADDS)

Output produced by TAFs form (0021 UTC 17 December 2017)
found at http://www.aviationweather.gov/adds/tafs/
 
KAPA 162353Z 08003KT 10SM FEW140 SCT220 04/M10 A2982 RMK AO2 SLP099 T00441100 10083 20044 53012
KAPA 162340Z 1700/1724 03005KT P6SM SCT120 BKN220 
     FM170200 07008KT P6SM FEW080 BKN140 
     FM170600 08007KT P6SM SCT006 BKN010 
     FM170900 12006KT 4SM BR BKN004 OVC008 
     PROB30 1709/1713 1/2SM -FZDZ FG VV003 
     FM171400 18006KT P6SM SCT008 OVC014 
     TEMPO 1714/1716 BKN008